sensor_id;sensor_type;location;lat;lon;timestamp;P1;durP1;ratioP1;P2;durP2;ratioP2
51714;SDS011;39115;59.332;18.034;2022-07-22T00:01:15;6.07;;;5.47;;
51714;SDS011;39115;59.332;18.034;2022-07-22T00:03:40;6.07;;;5.10;;
51714;SDS011;39115;59.332;18.034;2022-07-22T00:06:06;10.10;;;4.90;;
51714;SDS011;39115;59.332;18.034;2022-07-22T00:08:31;5.97;;;5.25;;
51714;SDS011;39115;59.332;18.034;2022-07-22T00:10:57;7.97;;;5.97;;
51714;SDS011;39115;59.332;18.034;2022-07-22T00:13:22;7.50;;;5.53;;
51714;SDS011;39115;59.332;18.034;2022-07-22T00:15:48;9.18;;;5.55;;
51714;SDS011;39115;59.332;18.034;2022-07-22T00:18:14;9.15;;;5.50;;
51714;SDS011;39115;59.332;18.034;2022-07-22T00:20:39;6.85;;;5.00;;
51714;SDS011;39115;59.332;18.034;2022-07-22T00:23:05;6.20;;;5.60;;
51714;SDS011;39115;59.332;18.034;2022-07-22T00:25:30;10.27;;;5.70;;
51714;SDS011;39115;59.332;18.034;2022-07-22T00:27:56;7.53;;;5.57;;
51714;SDS011;39115;59.332;18.034;2022-07-22T00:30:21;7.43;;;5.40;;
51714;SDS011;39115;59.332;18.034;2022-07-22T00:32:47;9.07;;;5.68;;
51714;SDS011;39115;59.332;18.034;2022-07-22T00:35:12;8.88;;;5.53;;
51714;SDS011;39115;59.332;18.034;2022-07-22T00:37:37;8.73;;;5.28;;
51714;SDS011;39115;59.332;18.034;2022-07-22T00:40:03;6.97;;;5.18;;
51714;SDS011;39115;59.332;18.034;2022-07-22T00:42:29;6.32;;;4.72;;
51714;SDS011;39115;59.332;18.034;2022-07-22T00:44:55;7.53;;;5.43;;
51714;SDS011;39115;59.332;18.034;2022-07-22T00:47:21;7.50;;;4.97;;
51714;SDS011;39115;59.332;18.034;2022-07-22T00:49:46;9.10;;;5.10;;
51714;SDS011;39115;59.332;18.034;2022-07-22T00:52:12;10.85;;;5.72;;
51714;SDS011;39115;59.332;18.034;2022-07-22T00:54:37;9.63;;;5.80;;
51714;SDS011;39115;59.332;18.034;2022-07-22T00:57:03;8.27;;;4.85;;
51714;SDS011;39115;59.332;18.034;2022-07-22T00:59:28;8.10;;;5.30;;
51714;SDS011;39115;59.332;18.034;2022-07-22T01:01:54;8.48;;;4.72;;
51714;SDS011;39115;59.332;18.034;2022-07-22T01:04:19;7.15;;;5.60;;
51714;SDS011;39115;59.332;18.034;2022-07-22T01:06:45;7.57;;;5.57;;
51714;SDS011;39115;59.332;18.034;2022-07-22T01:09:11;9.27;;;6.07;;
51714;SDS011;39115;59.332;18.034;2022-07-22T01:11:38;6.90;;;5.32;;
51714;SDS011;39115;59.332;18.034;2022-07-22T01:14:03;6.05;;;5.07;;
51714;SDS011;39115;59.332;18.034;2022-07-22T01:16:29;9.02;;;6.00;;
51714;SDS011;39115;59.332;18.034;2022-07-22T01:18:54;7.80;;;5.07;;
51714;SDS011;39115;59.332;18.034;2022-07-22T01:21:20;8.90;;;6.18;;
51714;SDS011;39115;59.332;18.034;2022-07-22T01:23:47;9.63;;;5.15;;
51714;SDS011;39115;59.332;18.034;2022-07-22T01:26:12;7.05;;;5.22;;
51714;SDS011;39115;59.332;18.034;2022-07-22T01:28:38;8.80;;;5.43;;
51714;SDS011;39115;59.332;18.034;2022-07-22T01:31:04;10.15;;;5.43;;
51714;SDS011;39115;59.332;18.034;2022-07-22T01:33:30;7.85;;;5.20;;
51714;SDS011;39115;59.332;18.034;2022-07-22T01:35:55;7.82;;;5.43;;
51714;SDS011;39115;59.332;18.034;2022-07-22T01:38:21;8.80;;;6.15;;
51714;SDS011;39115;59.332;18.034;2022-07-22T01:40:47;7.38;;;4.80;;
51714;SDS011;39115;59.332;18.034;2022-07-22T01:43:13;6.82;;;5.47;;
51714;SDS011;39115;59.332;18.034;2022-07-22T01:45:42;7.13;;;5.32;;
51714;SDS011;39115;59.332;18.034;2022-07-22T01:48:08;6.32;;;5.72;;
51714;SDS011;39115;59.332;18.034;2022-07-22T01:50:33;7.03;;;5.32;;
51714;SDS011;39115;59.332;18.034;2022-07-22T01:52:59;7.28;;;5.60;;
51714;SDS011;39115;59.332;18.034;2022-07-22T01:55:24;7.85;;;5.25;;
51714;SDS011;39115;59.332;18.034;2022-07-22T01:57:50;6.57;;;5.90;;
51714;SDS011;39115;59.332;18.034;2022-07-22T02:00:15;7.47;;;5.72;;
51714;SDS011;39115;59.332;18.034;2022-07-22T02:02:41;6.20;;;5.47;;
51714;SDS011;39115;59.332;18.034;2022-07-22T02:05:06;8.48;;;5.38;;
51714;SDS011;39115;59.332;18.034;2022-07-22T02:07:32;6.20;;;5.43;;
51714;SDS011;39115;59.332;18.034;2022-07-22T02:09:58;8.15;;;5.28;;
51714;SDS011;39115;59.332;18.034;2022-07-22T02:12:24;7.88;;;5.70;;
51714;SDS011;39115;59.332;18.034;2022-07-22T02:14:49;6.30;;;5.43;;
51714;SDS011;39115;59.332;18.034;2022-07-22T02:17:15;7.95;;;4.93;;
51714;SDS011;39115;59.332;18.034;2022-07-22T02:19:41;8.48;;;5.10;;
51714;SDS011;39115;59.332;18.034;2022-07-22T02:22:06;7.63;;;6.20;;
51714;SDS011;39115;59.332;18.034;2022-07-22T02:24:32;8.48;;;5.82;;
51714;SDS011;39115;59.332;18.034;2022-07-22T02:26:58;8.70;;;5.78;;
51714;SDS011;39115;59.332;18.034;2022-07-22T02:29:23;8.00;;;5.55;;
51714;SDS011;39115;59.332;18.034;2022-07-22T02:31:49;10.73;;;5.82;;
51714;SDS011;39115;59.332;18.034;2022-07-22T02:34:14;8.50;;;6.10;;
51714;SDS011;39115;59.332;18.034;2022-07-22T02:36:40;9.93;;;5.43;;
51714;SDS011;39115;59.332;18.034;2022-07-22T02:39:05;6.40;;;5.63;;
51714;SDS011;39115;59.332;18.034;2022-07-22T02:41:31;12.82;;;6.60;;
51714;SDS011;39115;59.332;18.034;2022-07-22T02:43:57;8.30;;;6.60;;
51714;SDS011;39115;59.332;18.034;2022-07-22T02:46:23;6.47;;;5.07;;
51714;SDS011;39115;59.332;18.034;2022-07-22T02:48:48;6.57;;;5.45;;
51714;SDS011;39115;59.332;18.034;2022-07-22T02:51:14;10.93;;;5.93;;
51714;SDS011;39115;59.332;18.034;2022-07-22T02:53:39;6.07;;;5.47;;
51714;SDS011;39115;59.332;18.034;2022-07-22T02:56:05;6.25;;;5.55;;
51714;SDS011;39115;59.332;18.034;2022-07-22T02:58:30;6.47;;;5.57;;
51714;SDS011;39115;59.332;18.034;2022-07-22T03:00:55;8.15;;;5.80;;
51714;SDS011;39115;59.332;18.034;2022-07-22T03:03:21;6.68;;;5.95;;
51714;SDS011;39115;59.332;18.034;2022-07-22T03:05:47;9.77;;;6.13;;
51714;SDS011;39115;59.332;18.034;2022-07-22T03:08:12;11.98;;;6.15;;
51714;SDS011;39115;59.332;18.034;2022-07-22T03:10:37;7.60;;;6.38;;
51714;SDS011;39115;59.332;18.034;2022-07-22T03:13:03;7.63;;;6.18;;
51714;SDS011;39115;59.332;18.034;2022-07-22T03:15:28;7.90;;;6.15;;
51714;SDS011;39115;59.332;18.034;2022-07-22T03:17:53;6.65;;;5.75;;
51714;SDS011;39115;59.332;18.034;2022-07-22T03:20:19;9.00;;;5.80;;
51714;SDS011;39115;59.332;18.034;2022-07-22T03:22:44;8.25;;;6.55;;
51714;SDS011;39115;59.332;18.034;2022-07-22T03:25:10;8.65;;;6.25;;
51714;SDS011;39115;59.332;18.034;2022-07-22T03:27:35;8.02;;;6.57;;
51714;SDS011;39115;59.332;18.034;2022-07-22T03:30:02;7.00;;;6.30;;
51714;SDS011;39115;59.332;18.034;2022-07-22T03:32:28;8.27;;;6.50;;
51714;SDS011;39115;59.332;18.034;2022-07-22T03:34:54;7.25;;;6.32;;
51714;SDS011;39115;59.332;18.034;2022-07-22T03:37:19;8.35;;;6.65;;
51714;SDS011;39115;59.332;18.034;2022-07-22T03:39:44;6.93;;;6.05;;
51714;SDS011;39115;59.332;18.034;2022-07-22T03:42:10;8.73;;;6.00;;
51714;SDS011;39115;59.332;18.034;2022-07-22T03:44:35;8.27;;;6.05;;
51714;SDS011;39115;59.332;18.034;2022-07-22T03:47:00;6.68;;;6.03;;
51714;SDS011;39115;59.332;18.034;2022-07-22T03:49:26;9.18;;;6.80;;
51714;SDS011;39115;59.332;18.034;2022-07-22T03:51:52;7.47;;;6.50;;
51714;SDS011;39115;59.332;18.034;2022-07-22T03:54:18;8.30;;;6.70;;
51714;SDS011;39115;59.332;18.034;2022-07-22T03:56:43;7.97;;;6.55;;
51714;SDS011;39115;59.332;18.034;2022-07-22T03:59:09;6.55;;;5.80;;
51714;SDS011;39115;59.332;18.034;2022-07-22T04:01:34;6.85;;;6.18;;
51714;SDS011;39115;59.332;18.034;2022-07-22T04:03:59;8.98;;;6.40;;
51714;SDS011;39115;59.332;18.034;2022-07-22T04:06:25;8.40;;;6.30;;
51714;SDS011;39115;59.332;18.034;2022-07-22T04:08:50;7.35;;;6.22;;
51714;SDS011;39115;59.332;18.034;2022-07-22T04:11:16;9.15;;;6.28;;
51714;SDS011;39115;59.332;18.034;2022-07-22T04:13:41;8.52;;;6.07;;
51714;SDS011;39115;59.332;18.034;2022-07-22T04:16:06;19.88;;;13.48;;
51714;SDS011;39115;59.332;18.034;2022-07-22T04:18:32;8.20;;;6.30;;
51714;SDS011;39115;59.332;18.034;2022-07-22T04:20:58;9.45;;;7.28;;
51714;SDS011;39115;59.332;18.034;2022-07-22T04:23:23;8.55;;;6.95;;
51714;SDS011;39115;59.332;18.034;2022-07-22T04:25:49;7.45;;;5.90;;
51714;SDS011;39115;59.332;18.034;2022-07-22T04:28:14;7.30;;;6.55;;
51714;SDS011;39115;59.332;18.034;2022-07-22T04:30:40;6.50;;;5.90;;
51714;SDS011;39115;59.332;18.034;2022-07-22T04:33:05;6.57;;;5.88;;
51714;SDS011;39115;59.332;18.034;2022-07-22T04:35:31;7.47;;;6.13;;
51714;SDS011;39115;59.332;18.034;2022-07-22T04:37:57;6.22;;;5.63;;
51714;SDS011;39115;59.332;18.034;2022-07-22T04:40:22;8.50;;;5.70;;
51714;SDS011;39115;59.332;18.034;2022-07-22T04:42:47;8.68;;;6.05;;
51714;SDS011;39115;59.332;18.034;2022-07-22T04:45:13;9.23;;;5.93;;
51714;SDS011;39115;59.332;18.034;2022-07-22T04:47:38;6.57;;;5.30;;
51714;SDS011;39115;59.332;18.034;2022-07-22T04:50:04;8.80;;;6.53;;
51714;SDS011;39115;59.332;18.034;2022-07-22T04:52:30;7.80;;;6.15;;
51714;SDS011;39115;59.332;18.034;2022-07-22T04:54:55;6.93;;;5.63;;
51714;SDS011;39115;59.332;18.034;2022-07-22T04:57:23;8.30;;;5.90;;
51714;SDS011;39115;59.332;18.034;2022-07-22T04:59:49;10.23;;;6.57;;
51714;SDS011;39115;59.332;18.034;2022-07-22T05:02:14;9.38;;;6.25;;
51714;SDS011;39115;59.332;18.034;2022-07-22T05:04:40;7.43;;;6.20;;
51714;SDS011;39115;59.332;18.034;2022-07-22T05:07:05;9.40;;;6.15;;
51714;SDS011;39115;59.332;18.034;2022-07-22T05:09:30;7.45;;;5.85;;
51714;SDS011;39115;59.332;18.034;2022-07-22T05:11:56;8.57;;;5.75;;
51714;SDS011;39115;59.332;18.034;2022-07-22T05:14:21;6.70;;;5.95;;
51714;SDS011;39115;59.332;18.034;2022-07-22T05:16:47;7.82;;;5.55;;
51714;SDS011;39115;59.332;18.034;2022-07-22T05:19:12;6.60;;;5.78;;
51714;SDS011;39115;59.332;18.034;2022-07-22T05:21:37;7.55;;;5.85;;
51714;SDS011;39115;59.332;18.034;2022-07-22T05:24:03;8.45;;;5.93;;
51714;SDS011;39115;59.332;18.034;2022-07-22T05:26:28;8.93;;;5.97;;
51714;SDS011;39115;59.332;18.034;2022-07-22T05:28:54;6.53;;;5.90;;
51714;SDS011;39115;59.332;18.034;2022-07-22T05:31:20;11.63;;;5.53;;
51714;SDS011;39115;59.332;18.034;2022-07-22T05:33:46;8.02;;;5.95;;
51714;SDS011;39115;59.332;18.034;2022-07-22T05:36:11;7.68;;;5.88;;
51714;SDS011;39115;59.332;18.034;2022-07-22T05:38:37;6.68;;;5.68;;
51714;SDS011;39115;59.332;18.034;2022-07-22T05:41:02;7.65;;;6.20;;
51714;SDS011;39115;59.332;18.034;2022-07-22T05:43:28;8.23;;;5.82;;
51714;SDS011;39115;59.332;18.034;2022-07-22T05:45:53;11.73;;;5.90;;
51714;SDS011;39115;59.332;18.034;2022-07-22T05:48:19;10.10;;;5.68;;
51714;SDS011;39115;59.332;18.034;2022-07-22T05:50:44;8.43;;;6.45;;
51714;SDS011;39115;59.332;18.034;2022-07-22T05:53:09;10.18;;;5.82;;
51714;SDS011;39115;59.332;18.034;2022-07-22T05:55:35;9.10;;;6.00;;
51714;SDS011;39115;59.332;18.034;2022-07-22T05:58:01;12.30;;;7.88;;
51714;SDS011;39115;59.332;18.034;2022-07-22T06:00:26;20.25;;;13.30;;
51714;SDS011;39115;59.332;18.034;2022-07-22T06:02:52;14.20;;;7.38;;
51714;SDS011;39115;59.332;18.034;2022-07-22T06:05:17;9.80;;;6.60;;
51714;SDS011;39115;59.332;18.034;2022-07-22T06:07:42;10.57;;;6.03;;
51714;SDS011;39115;59.332;18.034;2022-07-22T06:10:08;11.38;;;6.68;;
51714;SDS011;39115;59.332;18.034;2022-07-22T06:12:33;13.27;;;6.90;;
51714;SDS011;39115;59.332;18.034;2022-07-22T06:14:59;8.93;;;6.00;;
51714;SDS011;39115;59.332;18.034;2022-07-22T06:17:24;10.02;;;5.75;;
51714;SDS011;39115;59.332;18.034;2022-07-22T06:19:50;12.68;;;5.70;;
51714;SDS011;39115;59.332;18.034;2022-07-22T06:22:15;8.50;;;5.88;;
51714;SDS011;39115;59.332;18.034;2022-07-22T06:24:42;19.45;;;7.57;;
51714;SDS011;39115;59.332;18.034;2022-07-22T06:27:08;13.82;;;5.85;;
51714;SDS011;39115;59.332;18.034;2022-07-22T06:29:33;9.27;;;6.30;;
51714;SDS011;39115;59.332;18.034;2022-07-22T06:31:59;7.20;;;5.47;;
51714;SDS011;39115;59.332;18.034;2022-07-22T06:34:24;9.90;;;5.72;;
51714;SDS011;39115;59.332;18.034;2022-07-22T06:36:50;12.48;;;6.25;;
51714;SDS011;39115;59.332;18.034;2022-07-22T06:39:15;10.57;;;5.68;;
51714;SDS011;39115;59.332;18.034;2022-07-22T06:41:41;9.75;;;5.32;;
51714;SDS011;39115;59.332;18.034;2022-07-22T06:44:06;7.85;;;5.97;;
51714;SDS011;39115;59.332;18.034;2022-07-22T06:46:32;7.55;;;5.78;;
51714;SDS011;39115;59.332;18.034;2022-07-22T06:48:57;7.70;;;5.80;;
51714;SDS011;39115;59.332;18.034;2022-07-22T06:51:23;10.80;;;6.22;;
51714;SDS011;39115;59.332;18.034;2022-07-22T06:53:48;8.82;;;5.88;;
51714;SDS011;39115;59.332;18.034;2022-07-22T06:56:14;8.18;;;5.40;;
51714;SDS011;39115;59.332;18.034;2022-07-22T06:58:39;6.55;;;5.80;;
51714;SDS011;39115;59.332;18.034;2022-07-22T07:01:04;6.88;;;6.05;;
51714;SDS011;39115;59.332;18.034;2022-07-22T07:03:30;8.13;;;5.68;;
51714;SDS011;39115;59.332;18.034;2022-07-22T07:05:55;6.70;;;5.88;;
51714;SDS011;39115;59.332;18.034;2022-07-22T07:08:21;7.53;;;5.85;;
51714;SDS011;39115;59.332;18.034;2022-07-22T07:10:47;7.38;;;6.57;;
51714;SDS011;39115;59.332;18.034;2022-07-22T07:13:13;9.82;;;5.82;;
51714;SDS011;39115;59.332;18.034;2022-07-22T07:15:38;6.10;;;5.38;;
51714;SDS011;39115;59.332;18.034;2022-07-22T07:18:04;9.43;;;6.75;;
51714;SDS011;39115;59.332;18.034;2022-07-22T07:20:29;7.75;;;5.93;;
51714;SDS011;39115;59.332;18.034;2022-07-22T07:22:54;8.20;;;6.43;;
51714;SDS011;39115;59.332;18.034;2022-07-22T07:25:20;8.27;;;5.70;;
51714;SDS011;39115;59.332;18.034;2022-07-22T07:27:46;8.02;;;5.95;;
51714;SDS011;39115;59.332;18.034;2022-07-22T07:30:12;7.65;;;6.38;;
51714;SDS011;39115;59.332;18.034;2022-07-22T07:32:37;6.65;;;5.47;;
51714;SDS011;39115;59.332;18.034;2022-07-22T07:35:04;6.75;;;5.60;;
51714;SDS011;39115;59.332;18.034;2022-07-22T07:37:30;8.32;;;6.32;;
51714;SDS011;39115;59.332;18.034;2022-07-22T07:39:57;7.47;;;5.88;;
51714;SDS011;39115;59.332;18.034;2022-07-22T07:42:22;6.30;;;5.68;;
51714;SDS011;39115;59.332;18.034;2022-07-22T07:44:48;8.40;;;5.78;;
51714;SDS011;39115;59.332;18.034;2022-07-22T07:47:13;8.45;;;5.90;;
51714;SDS011;39115;59.332;18.034;2022-07-22T07:49:44;9.93;;;6.13;;
51714;SDS011;39115;59.332;18.034;2022-07-22T07:52:10;8.35;;;5.72;;
51714;SDS011;39115;59.332;18.034;2022-07-22T07:54:37;8.43;;;6.85;;
51714;SDS011;39115;59.332;18.034;2022-07-22T07:57:04;8.32;;;5.65;;
51714;SDS011;39115;59.332;18.034;2022-07-22T07:59:30;7.25;;;5.55;;
51714;SDS011;39115;59.332;18.034;2022-07-22T08:01:56;7.60;;;5.57;;
51714;SDS011;39115;59.332;18.034;2022-07-22T08:04:21;6.05;;;5.47;;
51714;SDS011;39115;59.332;18.034;2022-07-22T08:06:47;6.78;;;5.13;;
51714;SDS011;39115;59.332;18.034;2022-07-22T08:09:12;7.03;;;5.22;;
51714;SDS011;39115;59.332;18.034;2022-07-22T08:11:37;7.00;;;5.18;;
51714;SDS011;39115;59.332;18.034;2022-07-22T08:14:03;6.20;;;4.50;;
51714;SDS011;39115;59.332;18.034;2022-07-22T08:16:28;7.25;;;5.38;;
51714;SDS011;39115;59.332;18.034;2022-07-22T08:18:54;6.47;;;4.90;;
51714;SDS011;39115;59.332;18.034;2022-07-22T08:21:19;5.57;;;4.38;;
51714;SDS011;39115;59.332;18.034;2022-07-22T08:23:44;10.32;;;6.82;;
51714;SDS011;39115;59.332;18.034;2022-07-22T08:26:10;9.40;;;7.03;;
51714;SDS011;39115;59.332;18.034;2022-07-22T08:28:35;6.95;;;5.65;;
51714;SDS011;39115;59.332;18.034;2022-07-22T08:31:00;6.15;;;5.13;;
51714;SDS011;39115;59.332;18.034;2022-07-22T08:33:26;5.13;;;4.63;;
51714;SDS011;39115;59.332;18.034;2022-07-22T08:35:51;8.18;;;4.70;;
51714;SDS011;39115;59.332;18.034;2022-07-22T08:38:17;7.50;;;4.20;;
51714;SDS011;39115;59.332;18.034;2022-07-22T08:40:42;5.50;;;4.15;;
51714;SDS011;39115;59.332;18.034;2022-07-22T08:43:08;5.30;;;3.75;;
51714;SDS011;39115;59.332;18.034;2022-07-22T08:45:33;5.32;;;3.25;;
51714;SDS011;39115;59.332;18.034;2022-07-22T08:47:59;5.13;;;3.58;;
51714;SDS011;39115;59.332;18.034;2022-07-22T08:50:28;7.85;;;3.55;;
51714;SDS011;39115;59.332;18.034;2022-07-22T08:52:54;5.95;;;3.30;;
51714;SDS011;39115;59.332;18.034;2022-07-22T08:55:19;5.75;;;3.72;;
51714;SDS011;39115;59.332;18.034;2022-07-22T08:57:45;7.40;;;3.28;;
51714;SDS011;39115;59.332;18.034;2022-07-22T09:00:12;5.65;;;3.35;;
51714;SDS011;39115;59.332;18.034;2022-07-22T09:02:40;5.80;;;3.03;;
51714;SDS011;39115;59.332;18.034;2022-07-22T09:05:08;9.02;;;3.13;;
51714;SDS011;39115;59.332;18.034;2022-07-22T09:07:36;6.80;;;3.28;;
51714;SDS011;39115;59.332;18.034;2022-07-22T09:10:04;5.90;;;3.45;;
51714;SDS011;39115;59.332;18.034;2022-07-22T09:12:33;6.53;;;2.97;;
51714;SDS011;39115;59.332;18.034;2022-07-22T09:15:00;6.97;;;3.00;;
51714;SDS011;39115;59.332;18.034;2022-07-22T09:17:31;6.53;;;3.38;;
51714;SDS011;39115;59.332;18.034;2022-07-22T09:20:00;5.65;;;3.10;;
51714;SDS011;39115;59.332;18.034;2022-07-22T09:27:53;6.50;;;3.50;;
51714;SDS011;39115;59.332;18.034;2022-07-22T09:30:22;5.90;;;3.30;;
51714;SDS011;39115;59.332;18.034;2022-07-22T09:32:49;9.73;;;4.45;;
51714;SDS011;39115;59.332;18.034;2022-07-22T09:35:16;6.03;;;3.58;;
51714;SDS011;39115;59.332;18.034;2022-07-22T09:37:48;6.15;;;3.85;;
51714;SDS011;39115;59.332;18.034;2022-07-22T09:40:19;5.95;;;3.63;;
51714;SDS011;39115;59.332;18.034;2022-07-22T09:42:54;8.88;;;3.88;;
51714;SDS011;39115;59.332;18.034;2022-07-22T09:45:21;5.90;;;3.10;;
51714;SDS011;39115;59.332;18.034;2022-07-22T09:47:48;7.32;;;3.97;;
51714;SDS011;39115;59.332;18.034;2022-07-22T09:50:15;6.22;;;3.38;;
51714;SDS011;39115;59.332;18.034;2022-07-22T09:52:46;6.88;;;3.63;;
51714;SDS011;39115;59.332;18.034;2022-07-22T09:55:14;5.50;;;3.28;;
51714;SDS011;39115;59.332;18.034;2022-07-22T09:57:40;10.32;;;3.67;;
51714;SDS011;39115;59.332;18.034;2022-07-22T10:00:06;5.85;;;3.35;;
51714;SDS011;39115;59.332;18.034;2022-07-22T10:02:34;7.38;;;3.83;;
51714;SDS011;39115;59.332;18.034;2022-07-22T10:05:05;7.30;;;3.55;;
51714;SDS011;39115;59.332;18.034;2022-07-22T10:07:31;6.22;;;3.50;;
51714;SDS011;39115;59.332;18.034;2022-07-22T10:09:59;7.82;;;3.80;;
51714;SDS011;39115;59.332;18.034;2022-07-22T10:12:24;3.78;;;3.38;;
51714;SDS011;39115;59.332;18.034;2022-07-22T10:14:51;6.50;;;3.72;;
51714;SDS011;39115;59.332;18.034;2022-07-22T10:17:17;7.88;;;4.20;;
51714;SDS011;39115;59.332;18.034;2022-07-22T10:19:43;4.30;;;3.65;;
51714;SDS011;39115;59.332;18.034;2022-07-22T10:25:06;5.45;;;3.60;;
51714;SDS011;39115;59.332;18.034;2022-07-22T10:27:45;8.13;;;3.53;;
51714;SDS011;39115;59.332;18.034;2022-07-22T10:30:17;6.28;;;4.38;;
51714;SDS011;39115;59.332;18.034;2022-07-22T10:35:27;8.00;;;4.47;;
51714;SDS011;39115;59.332;18.034;2022-07-22T10:37:54;5.57;;;4.28;;
51714;SDS011;39115;59.332;18.034;2022-07-22T10:41:03;8.55;;;4.75;;
51714;SDS011;39115;59.332;18.034;2022-07-22T10:43:15;8.18;;;4.30;;
51714;SDS011;39115;59.332;18.034;2022-07-22T10:48:12;5.55;;;4.18;;
51714;SDS011;39115;59.332;18.034;2022-07-22T10:50:42;6.43;;;4.75;;
51714;SDS011;39115;59.332;18.034;2022-07-22T10:53:21;8.75;;;5.22;;
51714;SDS011;39115;59.332;18.034;2022-07-22T11:01:28;7.50;;;5.95;;
51714;SDS011;39115;59.332;18.034;2022-07-22T11:03:55;7.93;;;5.78;;
51714;SDS011;39115;59.332;18.034;2022-07-22T11:06:31;6.30;;;5.32;;
51714;SDS011;39115;59.332;18.034;2022-07-22T11:09:01;9.63;;;6.22;;
51714;SDS011;39115;59.332;18.034;2022-07-22T11:14:20;7.65;;;5.88;;
51714;SDS011;39115;59.332;18.034;2022-07-22T11:16:52;5.90;;;5.30;;
51714;SDS011;39115;59.332;18.034;2022-07-22T11:19:20;7.68;;;5.15;;
51714;SDS011;39115;59.332;18.034;2022-07-22T11:21:55;10.52;;;6.85;;
51714;SDS011;39115;59.332;18.034;2022-07-22T11:24:26;9.23;;;6.20;;
51714;SDS011;39115;59.332;18.034;2022-07-22T11:26:53;9.75;;;5.47;;
51714;SDS011;39115;59.332;18.034;2022-07-22T11:29:39;7.18;;;6.43;;
51714;SDS011;39115;59.332;18.034;2022-07-22T11:32:11;8.63;;;6.22;;
51714;SDS011;39115;59.332;18.034;2022-07-22T11:34:38;8.82;;;5.90;;
51714;SDS011;39115;59.332;18.034;2022-07-22T11:37:07;10.07;;;6.28;;
51714;SDS011;39115;59.332;18.034;2022-07-22T11:39:33;10.25;;;5.45;;
51714;SDS011;39115;59.332;18.034;2022-07-22T11:42:00;10.23;;;6.47;;
51714;SDS011;39115;59.332;18.034;2022-07-22T11:44:26;8.05;;;6.20;;
51714;SDS011;39115;59.332;18.034;2022-07-22T11:46:53;8.40;;;6.30;;
51714;SDS011;39115;59.332;18.034;2022-07-22T11:49:23;10.57;;;6.38;;
51714;SDS011;39115;59.332;18.034;2022-07-22T11:51:50;22.00;;;15.07;;
51714;SDS011;39115;59.332;18.034;2022-07-22T11:54:15;15.35;;;9.10;;
51714;SDS011;39115;59.332;18.034;2022-07-22T11:56:41;9.27;;;7.57;;
51714;SDS011;39115;59.332;18.034;2022-07-22T11:59:07;11.30;;;7.10;;
51714;SDS011;39115;59.332;18.034;2022-07-22T12:01:37;8.77;;;7.38;;
51714;SDS011;39115;59.332;18.034;2022-07-22T12:04:04;9.00;;;6.55;;
51714;SDS011;39115;59.332;18.034;2022-07-22T12:06:32;20.98;;;14.40;;
51714;SDS011;39115;59.332;18.034;2022-07-22T12:09:04;14.73;;;10.18;;
51714;SDS011;39115;59.332;18.034;2022-07-22T12:11:33;14.50;;;9.70;;
51714;SDS011;39115;59.332;18.034;2022-07-22T12:14:10;10.55;;;6.88;;
51714;SDS011;39115;59.332;18.034;2022-07-22T12:16:37;12.18;;;6.32;;
51714;SDS011;39115;59.332;18.034;2022-07-22T12:19:13;8.65;;;5.78;;
51714;SDS011;39115;59.332;18.034;2022-07-22T12:24:30;11.38;;;6.65;;
51714;SDS011;39115;59.332;18.034;2022-07-22T12:26:57;9.73;;;6.65;;
51714;SDS011;39115;59.332;18.034;2022-07-22T12:34:17;13.52;;;6.57;;
51714;SDS011;39115;59.332;18.034;2022-07-22T12:36:54;10.40;;;7.03;;
51714;SDS011;39115;59.332;18.034;2022-07-22T12:39:19;10.80;;;6.85;;
51714;SDS011;39115;59.332;18.034;2022-07-22T12:41:46;11.85;;;7.30;;
51714;SDS011;39115;59.332;18.034;2022-07-22T12:44:17;12.60;;;7.40;;
51714;SDS011;39115;59.332;18.034;2022-07-22T12:46:44;10.55;;;6.30;;
51714;SDS011;39115;59.332;18.034;2022-07-22T12:49:10;14.93;;;7.03;;
51714;SDS011;39115;59.332;18.034;2022-07-22T12:51:36;10.90;;;6.80;;
51714;SDS011;39115;59.332;18.034;2022-07-22T12:54:01;14.43;;;7.00;;
51714;SDS011;39115;59.332;18.034;2022-07-22T12:56:27;9.48;;;6.00;;
51714;SDS011;39115;59.332;18.034;2022-07-22T12:58:52;11.57;;;6.57;;
51714;SDS011;39115;59.332;18.034;2022-07-22T13:01:17;10.55;;;6.30;;
51714;SDS011;39115;59.332;18.034;2022-07-22T13:03:43;10.15;;;6.60;;
51714;SDS011;39115;59.332;18.034;2022-07-22T13:06:08;8.35;;;5.63;;
51714;SDS011;39115;59.332;18.034;2022-07-22T13:08:36;13.57;;;7.10;;
51714;SDS011;39115;59.332;18.034;2022-07-22T13:11:01;8.95;;;5.43;;
51714;SDS011;39115;59.332;18.034;2022-07-22T13:13:26;7.97;;;5.60;;
51714;SDS011;39115;59.332;18.034;2022-07-22T13:15:52;8.25;;;5.40;;
51714;SDS011;39115;59.332;18.034;2022-07-22T13:18:17;10.73;;;6.13;;
51714;SDS011;39115;59.332;18.034;2022-07-22T13:20:43;10.55;;;5.88;;
51714;SDS011;39115;59.332;18.034;2022-07-22T13:23:09;8.35;;;5.57;;
51714;SDS011;39115;59.332;18.034;2022-07-22T13:25:35;10.40;;;5.43;;
51714;SDS011;39115;59.332;18.034;2022-07-22T13:28:00;9.52;;;5.88;;
51714;SDS011;39115;59.332;18.034;2022-07-22T13:30:26;12.23;;;6.25;;
51714;SDS011;39115;59.332;18.034;2022-07-22T13:32:51;7.82;;;5.15;;
51714;SDS011;39115;59.332;18.034;2022-07-22T13:35:17;12.27;;;6.32;;
51714;SDS011;39115;59.332;18.034;2022-07-22T13:37:43;9.45;;;5.78;;
51714;SDS011;39115;59.332;18.034;2022-07-22T13:40:09;8.05;;;6.00;;
51714;SDS011;39115;59.332;18.034;2022-07-22T13:42:34;10.43;;;5.65;;
51714;SDS011;39115;59.332;18.034;2022-07-22T13:44:59;11.20;;;5.60;;
51714;SDS011;39115;59.332;18.034;2022-07-22T13:47:25;8.77;;;5.35;;
51714;SDS011;39115;59.332;18.034;2022-07-22T13:49:52;10.75;;;5.53;;
51714;SDS011;39115;59.332;18.034;2022-07-22T13:52:17;8.18;;;5.45;;
51714;SDS011;39115;59.332;18.034;2022-07-22T13:54:43;9.10;;;5.68;;
51714;SDS011;39115;59.332;18.034;2022-07-22T13:57:09;9.20;;;5.93;;
51714;SDS011;39115;59.332;18.034;2022-07-22T13:59:35;8.00;;;5.05;;
51714;SDS011;39115;59.332;18.034;2022-07-22T14:02:01;7.40;;;5.47;;
51714;SDS011;39115;59.332;18.034;2022-07-22T14:04:26;10.63;;;5.82;;
51714;SDS011;39115;59.332;18.034;2022-07-22T14:06:52;9.55;;;6.13;;
51714;SDS011;39115;59.332;18.034;2022-07-22T14:09:18;8.55;;;5.85;;
51714;SDS011;39115;59.332;18.034;2022-07-22T14:11:43;10.75;;;5.75;;
51714;SDS011;39115;59.332;18.034;2022-07-22T14:14:09;9.25;;;6.30;;
51714;SDS011;39115;59.332;18.034;2022-07-22T14:16:35;10.98;;;6.57;;
51714;SDS011;39115;59.332;18.034;2022-07-22T14:21:31;11.20;;;6.38;;
51714;SDS011;39115;59.332;18.034;2022-07-22T14:23:57;10.43;;;5.55;;
51714;SDS011;39115;59.332;18.034;2022-07-22T14:26:22;12.48;;;5.60;;
51714;SDS011;39115;59.332;18.034;2022-07-22T14:28:48;10.85;;;6.00;;
51714;SDS011;39115;59.332;18.034;2022-07-22T14:31:13;8.52;;;5.72;;
51714;SDS011;39115;59.332;18.034;2022-07-22T14:33:39;10.20;;;6.13;;
51714;SDS011;39115;59.332;18.034;2022-07-22T14:36:05;10.52;;;5.68;;
51714;SDS011;39115;59.332;18.034;2022-07-22T14:38:30;7.75;;;5.60;;
51714;SDS011;39115;59.332;18.034;2022-07-22T14:40:56;10.93;;;6.43;;
51714;SDS011;39115;59.332;18.034;2022-07-22T14:43:21;10.93;;;6.40;;
51714;SDS011;39115;59.332;18.034;2022-07-22T14:45:47;11.23;;;5.65;;
51714;SDS011;39115;59.332;18.034;2022-07-22T14:48:12;8.45;;;6.13;;
51714;SDS011;39115;59.332;18.034;2022-07-22T14:50:41;7.75;;;5.47;;
51714;SDS011;39115;59.332;18.034;2022-07-22T14:53:06;8.55;;;5.82;;
51714;SDS011;39115;59.332;18.034;2022-07-22T14:55:32;9.93;;;6.05;;
51714;SDS011;39115;59.332;18.034;2022-07-22T14:57:57;10.85;;;7.03;;